Time;durP1;ratioP1;P1;durP2;ratioP2;P2;SDS_P1;SDS_P2;PMS_P1;PMS_P2;Temp;Humidity;BMP_temperature;BMP_pressure;BME280_temperature;BME280_humidity;BME280_pressure;Samples;Min_cycle;Max_cycle;Signal;HPM_P1;HPM_P2
2021/11/23 00:00:45;;;;;;;7.43;2.30;;;5.60;99.90;;;;;;4933498;28;20205;-56
2021/11/23 00:03:13;;;;;;;3.30;3.00;;;5.60;99.90;;;;;;4933139;28;20206;-56
2021/11/23 00:05:41;;;;;;;4.13;2.80;;;5.60;99.90;;;;;;4933147;29;20283;-56
2021/11/23 00:08:09;;;;;;;5.05;2.75;;;5.60;99.90;;;;;;4934189;28;20583;-56
2021/11/23 00:10:37;;;;;;;5.60;2.60;;;5.60;99.90;;;;;;4933479;28;20233;-55
2021/11/23 00:13:04;;;;;;;3.97;2.60;;;5.60;99.90;;;;;;4933007;28;20280;-56
2021/11/23 00:15:34;;;;;;;4.05;2.50;;;5.60;99.90;;;;;;4932950;29;20237;-56
2021/11/23 00:18:04;;;;;;;3.58;2.53;;;5.60;99.90;;;;;;4933302;28;20206;-56
2021/11/23 00:20:32;;;;;;;5.45;2.70;;;5.60;99.90;;;;;;4933486;28;20237;-56
2021/11/23 00:22:59;;;;;;;3.75;2.80;;;5.50;99.90;;;;;;4933083;28;20244;-56
2021/11/23 00:25:27;;;;;;;9.10;3.33;;;5.50;99.90;;;;;;4936112;29;20240;-57
2021/11/23 00:27:55;;;;;;;5.00;3.15;;;5.40;99.90;;;;;;4936694;28;20237;-56
2021/11/23 00:30:24;;;;;;;6.32;2.97;;;5.40;99.90;;;;;;4936435;29;20237;-56
2021/11/23 00:32:51;;;;;;;2.35;2.15;;;5.40;99.90;;;;;;4936901;28;20289;-56
2021/11/23 00:35:20;;;;;;;6.10;2.50;;;5.30;99.90;;;;;;4936500;28;20206;-56
2021/11/23 00:37:48;;;;;;;5.95;2.58;;;5.30;99.90;;;;;;4936740;28;20205;-56
2021/11/23 00:40:16;;;;;;;4.35;2.25;;;5.30;99.90;;;;;;4936593;28;20250;-56
2021/11/23 00:42:43;;;;;;;4.57;2.92;;;5.30;99.90;;;;;;4936642;28;20253;-56
2021/11/23 00:45:12;;;;;;;3.30;2.80;;;5.20;99.90;;;;;;4936581;28;20244;-56
2021/11/23 00:47:40;;;;;;;7.80;2.60;;;5.20;99.90;;;;;;4936101;28;20226;-56
2021/11/23 00:50:09;;;;;;;4.50;2.58;;;5.20;99.90;;;;;;4936263;28;20621;-56
2021/11/23 00:52:39;;;;;;;4.10;2.40;;;5.20;99.90;;;;;;4936371;28;20743;-56
2021/11/23 00:55:07;;;;;;;5.47;2.22;;;5.20;99.90;;;;;;4936990;29;20320;-56
2021/11/23 00:57:35;;;;;;;9.43;3.00;;;5.20;99.90;;;;;;4936587;29;20265;-56
2021/11/23 01:00:03;;;;;;;5.20;2.20;;;5.10;99.90;;;;;;4936499;28;20210;-56
2021/11/23 01:02:30;;;;;;;6.35;3.05;;;5.10;99.90;;;;;;4936381;28;20234;-57
2021/11/23 01:04:57;;;;;;;3.40;2.35;;;5.10;99.90;;;;;;4935907;29;20283;-57
2021/11/23 01:07:25;;;;;;;3.88;2.63;;;5.10;99.90;;;;;;4935591;29;20689;-56
2021/11/23 01:09:53;;;;;;;8.48;2.85;;;5.20;99.90;;;;;;4935568;29;20304;-56
2021/11/23 01:12:21;;;;;;;3.75;2.03;;;5.20;99.90;;;;;;4935802;29;20238;-56
2021/11/23 01:14:48;;;;;;;5.85;2.28;;;5.20;99.90;;;;;;4935707;29;20257;-56
2021/11/23 01:17:16;;;;;;;4.43;2.50;;;5.20;99.90;;;;;;4935811;29;20253;-56
2021/11/23 01:19:43;;;;;;;6.30;2.08;;;5.30;99.90;;;;;;4935998;29;20296;-56
2021/11/23 01:22:11;;;;;;;3.35;2.55;;;5.20;99.90;;;;;;4936104;28;20293;-57
2021/11/23 01:24:38;;;;;;;6.03;2.70;;;5.20;99.90;;;;;;4935567;29;20237;-56
2021/11/23 01:27:07;;;;;;;8.45;2.75;;;5.20;99.90;;;;;;4935486;28;20257;-56
2021/11/23 01:29:35;;;;;;;4.15;2.92;;;5.10;99.90;;;;;;4935840;29;20213;-56
2021/11/23 01:32:02;;;;;;;8.20;3.20;;;5.10;99.90;;;;;;4935673;28;20628;-57
2021/11/23 01:34:30;;;;;;;5.70;2.95;;;5.10;99.90;;;;;;4936117;28;20584;-57
2021/11/23 01:36:57;;;;;;;3.88;2.80;;;5.20;99.90;;;;;;4935206;28;20672;-56
2021/11/23 01:39:24;;;;;;;3.83;2.70;;;5.20;99.90;;;;;;4935430;29;20672;-56
2021/11/23 01:41:52;;;;;;;4.60;2.85;;;5.20;99.90;;;;;;4935369;28;20202;-56
2021/11/23 01:44:21;;;;;;;7.80;2.88;;;5.30;99.90;;;;;;4935566;29;20202;-56
2021/11/23 01:46:48;;;;;;;5.32;3.03;;;5.30;99.90;;;;;;4935472;29;20225;-56
2021/11/23 01:49:16;;;;;;;10.25;3.45;;;5.30;99.90;;;;;;4936415;28;20214;-54
2021/11/23 01:51:44;;;;;;;4.60;3.20;;;5.40;99.90;;;;;;4936424;29;20249;-56
2021/11/23 01:54:12;;;;;;;7.05;3.45;;;5.40;99.90;;;;;;4935893;28;20265;-56
2021/11/23 01:56:39;;;;;;;5.50;3.20;;;5.40;99.90;;;;;;4935869;28;20254;-55
2021/11/23 01:59:07;;;;;;;6.55;2.72;;;5.40;99.90;;;;;;4936130;28;20244;-56
2021/11/23 02:01:36;;;;;;;4.35;2.90;;;5.50;99.90;;;;;;4935840;29;20368;-56
2021/11/23 02:04:04;;;;;;;3.75;2.85;;;5.50;99.90;;;;;;4935809;28;20245;-56
2021/11/23 02:06:32;;;;;;;5.50;3.00;;;5.50;99.90;;;;;;4935859;28;20237;-56
2021/11/23 02:08:59;;;;;;;6.45;2.95;;;5.60;99.90;;;;;;4935745;29;20228;-55
2021/11/23 02:11:27;;;;;;;7.35;3.40;;;5.60;99.90;;;;;;4935342;28;20755;-55
2021/11/23 02:13:55;;;;;;;3.63;3.13;;;5.60;99.90;;;;;;4935551;29;20321;-56
2021/11/23 02:16:22;;;;;;;5.85;2.88;;;5.60;99.90;;;;;;4934954;28;20272;-55
2021/11/23 02:18:51;;;;;;;6.93;3.70;;;5.70;99.90;;;;;;4935252;29;20206;-56
2021/11/23 02:21:20;;;;;;;7.63;3.35;;;5.70;99.90;;;;;;4934941;29;20670;-56
2021/11/23 02:23:47;;;;;;;4.97;3.22;;;5.70;99.90;;;;;;4935420;28;20229;-56
2021/11/23 02:26:15;;;;;;;5.95;3.17;;;5.70;99.90;;;;;;4935088;29;20272;-56
2021/11/23 02:28:42;;;;;;;5.78;3.70;;;5.70;99.90;;;;;;4935171;28;20665;-56
2021/11/23 02:31:10;;;;;;;9.23;5.13;;;5.70;99.90;;;;;;4934993;28;20635;-56
2021/11/23 02:33:39;;;;;;;6.95;4.35;;;5.70;99.90;;;;;;4935021;28;20202;-56
2021/11/23 02:36:08;;;;;;;11.35;4.45;;;5.70;99.90;;;;;;4934730;28;20261;-56
2021/11/23 02:38:39;;;;;;;6.65;3.90;;;5.70;99.90;;;;;;4935007;28;20244;-54
2021/11/23 02:41:10;;;;;;;7.55;4.15;;;5.70;99.90;;;;;;4934550;29;20190;-55
2021/11/23 02:43:38;;;;;;;10.18;4.78;;;5.70;99.90;;;;;;4935287;28;20225;-55
2021/11/23 02:46:07;;;;;;;4.95;3.88;;;5.70;99.90;;;;;;4934545;29;20230;-55
2021/11/23 02:48:34;;;;;;;7.30;4.20;;;5.70;99.90;;;;;;4933219;29;20205;-55
2021/11/23 02:51:06;;;;;;;7.30;4.60;;;5.70;99.90;;;;;;4934644;29;20260;-55
2021/11/23 02:53:34;;;;;;;7.90;5.07;;;5.70;99.90;;;;;;4934280;28;20206;-55
2021/11/23 02:56:04;;;;;;;5.68;4.07;;;5.70;99.90;;;;;;4934593;28;20268;-55
2021/11/23 02:58:32;;;;;;;4.78;3.65;;;5.70;99.90;;;;;;4934279;29;20206;-57
2021/11/23 03:01:01;;;;;;;5.45;3.70;;;5.70;99.90;;;;;;4934317;28;20747;-56
2021/11/23 03:03:29;;;;;;;6.30;3.30;;;5.70;99.90;;;;;;4934184;28;20252;-55
2021/11/23 03:05:56;;;;;;;6.03;3.67;;;5.70;99.90;;;;;;4934450;28;20280;-55
2021/11/23 03:08:24;;;;;;;8.10;3.75;;;5.70;99.90;;;;;;4934131;28;20216;-56
2021/11/23 03:10:52;;;;;;;9.93;4.50;;;5.70;99.90;;;;;;4934106;28;20207;-56
2021/11/23 03:13:21;;;;;;;4.53;2.97;;;5.70;99.90;;;;;;4934518;28;20271;-56
2021/11/23 03:15:49;;;;;;;4.13;3.25;;;5.70;99.90;;;;;;4934575;29;20269;-56
2021/11/23 03:18:16;;;;;;;4.40;3.00;;;5.70;99.90;;;;;;4934430;28;20244;-56
2021/11/23 03:20:44;;;;;;;6.10;3.95;;;5.70;99.90;;;;;;4934199;29;20245;-56
2021/11/23 03:23:13;;;;;;;5.78;3.55;;;5.70;99.90;;;;;;4933880;28;20748;-56
2021/11/23 03:25:40;;;;;;;8.48;3.72;;;5.70;99.90;;;;;;4934080;29;20257;-56
2021/11/23 03:28:08;;;;;;;10.68;3.78;;;5.70;99.90;;;;;;4934111;28;20244;-56
2021/11/23 03:30:37;;;;;;;5.22;3.83;;;5.70;99.90;;;;;;4933689;29;20249;-56
2021/11/23 03:33:06;;;;;;;6.93;3.90;;;5.70;99.90;;;;;;4933858;28;20297;-56
2021/11/23 03:35:35;;;;;;;6.13;4.10;;;5.70;99.90;;;;;;4933244;29;20325;-56
2021/11/23 03:38:05;;;;;;;5.97;3.83;;;5.70;99.90;;;;;;4933710;29;20190;-56
2021/11/23 03:40:34;;;;;;;10.35;4.70;;;5.60;99.90;;;;;;4934529;28;20296;-56
2021/11/23 03:43:02;;;;;;;10.68;5.00;;;5.60;99.90;;;;;;4934900;29;20206;-56
2021/11/23 03:45:30;;;;;;;8.10;4.57;;;5.60;99.90;;;;;;4934330;28;20621;-56
2021/11/23 03:48:01;;;;;;;6.82;4.88;;;5.50;99.90;;;;;;4934545;28;20574;-56
2021/11/23 03:50:28;;;;;;;8.60;4.38;;;5.50;99.90;;;;;;4935789;29;20614;-56
2021/11/23 03:52:57;;;;;;;9.20;5.40;;;5.50;99.90;;;;;;4933986;29;20688;-56
2021/11/23 03:55:24;;;;;;;11.00;4.95;;;5.50;99.90;;;;;;4934233;28;20716;-56
2021/11/23 03:57:52;;;;;;;10.32;6.10;;;5.50;99.90;;;;;;4933999;28;20201;-56
2021/11/23 04:00:23;;;;;;;8.32;5.47;;;5.50;99.90;;;;;;4933458;28;20293;-56
2021/11/23 04:02:53;;;;;;;7.72;6.00;;;5.50;99.90;;;;;;4933464;28;20190;-56
2021/11/23 04:08:57;;;;;;;8.98;5.75;;;5.50;99.90;;;;;;5112022;27;20999;-56
2021/11/23 04:11:24;;;;;;;8.40;6.70;;;5.50;99.90;;;;;;5111450;28;20203;-55
2021/11/23 04:13:52;;;;;;;9.23;7.05;;;5.50;99.90;;;;;;5111430;28;20263;-56
2021/11/23 04:16:21;;;;;;;7.47;6.18;;;5.50;99.90;;;;;;5110824;28;20258;-56
2021/11/23 04:18:48;;;;;;;8.85;6.60;;;5.50;99.90;;;;;;5111144;28;20279;-55
2021/11/23 04:21:15;;;;;;;8.15;7.22;;;5.50;99.90;;;;;;5111406;28;20238;-55
2021/11/23 04:23:43;;;;;;;13.65;7.35;;;5.60;99.90;;;;;;5084920;22;20364;-60
2021/11/23 04:26:12;;;;;;;12.98;8.13;;;5.60;99.90;;;;;;5050726;28;20234;-60
2021/11/23 04:28:39;;;;;;;8.82;7.80;;;5.60;99.90;;;;;;5058786;28;20309;-59
2021/11/23 04:31:06;;;;;;;10.63;7.50;;;5.60;99.90;;;;;;5065287;28;20225;-59
2021/11/23 04:33:34;;;;;;;14.20;8.02;;;5.60;99.90;;;;;;5061978;28;20221;-59
2021/11/23 04:36:01;;;;;;;9.00;7.28;;;5.60;99.90;;;;;;5062261;28;20233;-60
2021/11/23 04:38:29;;;;;;;9.75;8.05;;;5.70;99.90;;;;;;5053264;28;20678;-59
2021/11/23 04:40:56;;;;;;;17.05;7.30;;;5.70;99.90;;;;;;5050205;28;20233;-59
2021/11/23 04:43:25;;;;;;;11.35;7.40;;;5.70;99.90;;;;;;5050172;28;20317;-61
2021/11/23 04:45:52;;;;;;;11.73;8.65;;;5.70;99.90;;;;;;5050206;28;20237;-59
2021/11/23 04:48:19;;;;;;;9.02;7.90;;;5.70;99.90;;;;;;5049974;28;20312;-60
2021/11/23 04:50:46;;;;;;;9.95;8.15;;;5.80;99.90;;;;;;5050195;28;20255;-60
2021/11/23 04:53:14;;;;;;;12.50;7.95;;;5.80;99.90;;;;;;5049990;28;20309;-59
2021/11/23 04:55:41;;;;;;;9.77;8.25;;;5.80;99.90;;;;;;5050240;28;20237;-60
2021/11/23 04:58:08;;;;;;;10.50;8.20;;;5.80;99.90;;;;;;5050322;28;20285;-60
2021/11/23 05:00:37;;;;;;;11.48;9.40;;;5.80;99.90;;;;;;5049679;28;20229;-58
2021/11/23 05:03:04;;;;;;;13.35;9.10;;;5.80;99.90;;;;;;5049903;28;20677;-60
2021/11/23 05:05:31;;;;;;;9.30;8.30;;;5.90;99.90;;;;;;5050648;28;20288;-61
2021/11/23 05:07:59;;;;;;;9.73;8.65;;;5.90;99.90;;;;;;5050242;28;20314;-60
2021/11/23 05:10:26;;;;;;;10.85;8.38;;;5.90;99.90;;;;;;5051118;28;20630;-60
2021/11/23 05:12:53;;;;;;;10.18;8.60;;;5.90;99.90;;;;;;5050736;28;20316;-60
2021/11/23 05:15:21;;;;;;;9.63;8.73;;;5.90;99.90;;;;;;5051383;28;20209;-59
2021/11/23 05:17:49;;;;;;;9.77;8.73;;;5.90;99.90;;;;;;5051541;28;20284;-59
2021/11/23 05:20:17;;;;;;;11.73;8.85;;;5.80;99.90;;;;;;5039975;28;20274;-60
2021/11/23 05:22:44;;;;;;;10.43;9.32;;;5.90;99.90;;;;;;5046684;28;20261;-61
2021/11/23 05:25:11;;;;;;;10.23;9.23;;;5.90;99.90;;;;;;5039013;28;20222;-60
2021/11/23 05:27:41;;;;;;;11.95;9.10;;;5.90;99.90;;;;;;5036698;28;20305;-60
2021/11/23 05:30:09;;;;;;;11.45;9.68;;;5.90;99.90;;;;;;5036691;28;20241;-59
2021/11/23 05:32:36;;;;;;;11.55;9.00;;;5.90;99.90;;;;;;5036776;28;20253;-59
2021/11/23 05:35:06;;;;;;;10.48;9.48;;;5.90;99.90;;;;;;5036383;28;20289;-59
2021/11/23 05:37:33;;;;;;;11.38;10.20;;;6.00;99.90;;;;;;5035946;28;20206;-60
2021/11/23 05:40:01;;;;;;;10.50;9.50;;;6.00;99.90;;;;;;5036046;28;20293;-60
2021/11/23 05:42:29;;;;;;;10.65;9.35;;;6.00;99.90;;;;;;5035970;28;20226;-60
2021/11/23 05:44:56;;;;;;;16.17;10.25;;;6.00;99.90;;;;;;5036191;28;20298;-60
2021/11/23 05:47:24;;;;;;;11.75;10.25;;;6.00;99.90;;;;;;5040900;28;20218;-60
2021/11/23 05:49:52;;;;;;;15.55;10.95;;;6.00;99.90;;;;;;5040877;28;20278;-60
2021/11/23 05:52:20;;;;;;;13.57;10.52;;;6.10;99.90;;;;;;5040831;28;20674;-61
2021/11/23 05:54:49;;;;;;;10.80;9.80;;;6.10;99.90;;;;;;5038102;28;20708;-60
2021/11/23 05:57:16;;;;;;;11.38;10.13;;;6.10;99.90;;;;;;5035981;28;20234;-61
2021/11/23 05:59:43;;;;;;;12.63;11.32;;;6.10;99.90;;;;;;5035266;28;20734;-60
2021/11/23 06:02:10;;;;;;;11.13;9.93;;;6.10;99.90;;;;;;5035082;28;20317;-58
2021/11/23 06:04:38;;;;;;;12.80;10.93;;;6.10;99.90;;;;;;5035197;28;20293;-60
2021/11/23 06:07:05;;;;;;;11.70;10.50;;;6.10;99.90;;;;;;5034653;28;20293;-59
2021/11/23 06:09:34;;;;;;;12.65;11.30;;;6.10;99.90;;;;;;5035164;28;20234;-59
2021/11/23 06:12:03;;;;;;;13.02;11.70;;;6.10;99.90;;;;;;5035147;28;20234;-60
2021/11/23 06:14:31;;;;;;;13.55;12.18;;;6.10;99.90;;;;;;5035131;28;20666;-60
2021/11/23 06:16:58;;;;;;;12.27;11.00;;;6.10;99.90;;;;;;5036140;28;20201;-59
2021/11/23 06:19:26;;;;;;;14.50;12.18;;;6.10;99.90;;;;;;5035196;28;20218;-59
2021/11/23 06:21:53;;;;;;;12.82;11.52;;;6.10;99.90;;;;;;5034428;28;20293;-60
2021/11/23 06:24:20;;;;;;;14.10;12.23;;;6.00;99.90;;;;;;5034964;28;20274;-60
2021/11/23 06:26:50;;;;;;;14.43;11.95;;;6.10;99.90;;;;;;5034838;28;20301;-60
2021/11/23 06:29:17;;;;;;;13.60;11.98;;;6.10;99.90;;;;;;5035035;28;20313;-59
2021/11/23 06:31:44;;;;;;;17.65;13.32;;;6.10;99.90;;;;;;5034021;28;20734;-60
2021/11/23 06:34:11;;;;;;;14.60;11.88;;;6.10;99.90;;;;;;5040013;28;20236;-61
2021/11/23 06:36:38;;;;;;;15.20;11.88;;;6.10;99.90;;;;;;5037291;28;20637;-60
2021/11/23 06:39:07;;;;;;;14.88;13.20;;;6.10;99.90;;;;;;5037073;28;20229;-59
2021/11/23 06:41:35;;;;;;;16.35;13.27;;;6.10;99.90;;;;;;5035032;28;20568;-60
2021/11/23 06:44:04;;;;;;;14.32;12.77;;;6.10;99.90;;;;;;5034371;28;20250;-60
2021/11/23 06:46:32;;;;;;;15.60;13.73;;;6.10;99.90;;;;;;5034749;28;20237;-60
2021/11/23 06:49:00;;;;;;;19.27;14.27;;;6.10;99.90;;;;;;5034806;28;20246;-60
2021/11/23 06:51:28;;;;;;;20.73;14.40;;;6.10;99.90;;;;;;5035706;28;20202;-59
2021/11/23 06:53:55;;;;;;;17.45;15.55;;;6.00;99.90;;;;;;5034833;28;20349;-59
2021/11/23 06:56:23;;;;;;;25.30;15.27;;;6.00;99.90;;;;;;5035065;28;20254;-59
2021/11/23 06:58:50;;;;;;;20.42;16.40;;;6.00;99.90;;;;;;5035868;28;20202;-59
2021/11/23 07:01:19;;;;;;;18.25;12.80;;;6.00;99.90;;;;;;5038768;28;20202;-58
2021/11/23 07:03:47;;;;;;;20.83;15.55;;;6.00;99.90;;;;;;5038088;28;20312;-59
2021/11/23 07:06:14;;;;;;;18.45;14.90;;;6.00;99.90;;;;;;5036856;28;20226;-59
2021/11/23 07:08:41;;;;;;;17.88;14.95;;;6.00;99.90;;;;;;5036478;28;20650;-58
2021/11/23 07:11:08;;;;;;;20.58;16.60;;;6.00;99.90;;;;;;5035196;28;20233;-62
2021/11/23 07:13:36;;;;;;;19.60;17.00;;;6.00;99.90;;;;;;5035704;28;20258;-60
2021/11/23 07:16:03;;;;;;;19.58;15.70;;;6.00;99.90;;;;;;5035691;28;20265;-61
2021/11/23 07:18:32;;;;;;;19.67;16.55;;;6.00;99.90;;;;;;5034818;28;20237;-61
2021/11/23 07:20:59;;;;;;;23.88;18.25;;;6.00;99.90;;;;;;5034872;28;20678;-61
2021/11/23 07:23:27;;;;;;;23.60;18.45;;;6.00;99.90;;;;;;5035896;28;20233;-61
2021/11/23 07:25:54;;;;;;;27.30;19.45;;;6.00;99.90;;;;;;5034697;28;20230;-61
2021/11/23 07:28:21;;;;;;;27.63;17.70;;;6.00;99.90;;;;;;5034581;28;20773;-60
2021/11/23 07:30:48;;;;;;;26.50;18.38;;;5.90;99.90;;;;;;5036939;28;20705;-61
2021/11/23 07:33:16;;;;;;;27.23;18.98;;;5.90;99.90;;;;;;5034962;28;20320;-62
2021/11/23 07:35:44;;;;;;;25.27;20.63;;;5.90;99.90;;;;;;5035573;28;20289;-60
2021/11/23 07:38:11;;;;;;;27.85;20.25;;;6.00;99.90;;;;;;5033886;28;20289;-60
2021/11/23 07:40:39;;;;;;;24.15;18.42;;;6.00;99.90;;;;;;5033877;28;20285;-60
2021/11/23 07:43:06;;;;;;;28.58;19.90;;;6.00;99.90;;;;;;5033417;28;20761;-60
2021/11/23 07:45:33;;;;;;;28.00;21.17;;;6.00;99.90;;;;;;5035986;28;20230;-59
2021/11/23 07:48:00;;;;;;;26.80;19.45;;;6.10;99.90;;;;;;5046957;28;20223;-59
2021/11/23 07:50:28;;;;;;;28.27;19.73;;;6.10;99.90;;;;;;5038551;28;20207;-61
2021/11/23 07:52:57;;;;;;;29.00;18.83;;;6.10;99.90;;;;;;5033898;28;20318;-60
2021/11/23 07:55:24;;;;;;;23.50;16.70;;;6.10;99.90;;;;;;5033628;28;20233;-60
2021/11/23 07:57:52;;;;;;;26.35;18.40;;;6.10;99.90;;;;;;5034029;28;20244;-62
2021/11/23 08:00:22;;;;;;;31.20;19.75;;;6.20;99.90;;;;;;5034299;28;20722;-59
2021/11/23 08:02:49;;;;;;;24.15;17.13;;;6.20;99.90;;;;;;5035066;28;20276;-60
2021/11/23 08:05:17;;;;;;;23.65;17.83;;;6.20;99.90;;;;;;5035068;28;20237;-61
2021/11/23 08:07:44;;;;;;;26.83;17.95;;;6.20;99.90;;;;;;5034998;28;20603;-60
2021/11/23 08:10:13;;;;;;;29.05;19.45;;;6.20;99.90;;;;;;5034693;28;20245;-61
2021/11/23 08:12:40;;;;;;;28.80;18.45;;;6.20;99.90;;;;;;5035269;28;20305;-61
2021/11/23 08:15:08;;;;;;;25.95;16.67;;;6.30;99.90;;;;;;5035321;28;20719;-60
2021/11/23 08:17:35;;;;;;;28.58;18.55;;;6.30;99.90;;;;;;5034011;28;20235;-61
2021/11/23 08:20:03;;;;;;;26.33;17.45;;;6.30;99.90;;;;;;5034035;28;20289;-59
2021/11/23 08:22:31;;;;;;;27.70;18.40;;;6.20;99.90;;;;;;5033210;28;20266;-61
2021/11/23 08:24:58;;;;;;;29.92;17.60;;;6.20;99.90;;;;;;5033567;28;20187;-61
2021/11/23 08:27:26;;;;;;;33.72;19.65;;;6.20;99.90;;;;;;5033451;28;20210;-60
2021/11/23 08:29:54;;;;;;;31.50;19.70;;;6.20;99.90;;;;;;5032861;28;20314;-60
2021/11/23 08:32:21;;;;;;;36.05;19.83;;;6.30;99.90;;;;;;5033041;28;20257;-59
2021/11/23 08:34:48;;;;;;;29.92;19.70;;;6.30;99.90;;;;;;5034268;28;20305;-62
2021/11/23 08:37:15;;;;;;;27.38;18.63;;;6.30;99.90;;;;;;5036385;28;20206;-60
2021/11/23 08:39:43;;;;;;;29.80;19.83;;;6.30;99.90;;;;;;5035314;28;20195;-58
2021/11/23 08:42:10;;;;;;;30.80;19.45;;;6.30;99.90;;;;;;5033614;28;20254;-61
2021/11/23 08:44:39;;;;;;;31.02;18.35;;;6.30;99.90;;;;;;5033370;28;20667;-59
2021/11/23 08:47:07;;;;;;;25.08;16.85;;;6.30;99.90;;;;;;5033545;28;20237;-60
2021/11/23 08:49:34;;;;;;;27.33;18.17;;;6.30;99.90;;;;;;5033696;28;20250;-62
2021/11/23 08:52:01;;;;;;;30.23;18.30;;;6.30;99.90;;;;;;5033490;28;20214;-62
2021/11/23 08:54:30;;;;;;;29.23;18.67;;;6.20;99.90;;;;;;5034871;28;20206;-61
2021/11/23 08:57:01;;;;;;;29.05;18.70;;;6.20;99.90;;;;;;5036782;28;20217;-63
2021/11/23 08:59:29;;;;;;;35.17;20.17;;;6.30;99.90;;;;;;5036806;28;20277;-60
2021/11/23 09:01:58;;;;;;;30.25;18.40;;;6.20;99.90;;;;;;5036346;28;20669;-60
2021/11/23 09:04:25;;;;;;;24.42;17.58;;;6.20;99.90;;;;;;5036739;28;20297;-61
2021/11/23 09:06:53;;;;;;;31.48;19.95;;;6.20;99.90;;;;;;5036890;28;20685;-62
2021/11/23 09:09:24;;;;;;;28.85;16.75;;;6.20;99.90;;;;;;5036978;28;20222;-59
2021/11/23 09:11:52;;;;;;;34.78;20.13;;;6.20;99.90;;;;;;5043688;28;20187;-62
2021/11/23 09:14:19;;;;;;;29.20;20.05;;;6.30;99.90;;;;;;5036713;28;20305;-59
2021/11/23 09:16:46;;;;;;;33.78;18.48;;;6.30;99.90;;;;;;5036490;28;20629;-62
2021/11/23 09:19:15;;;;;;;29.15;19.20;;;6.30;99.90;;;;;;5036347;28;20289;-58
2021/11/23 09:21:42;;;;;;;33.13;20.30;;;6.30;99.90;;;;;;5035749;28;20302;-61
2021/11/23 09:24:10;;;;;;;30.65;20.33;;;6.30;99.90;;;;;;5036035;28;20313;-62
2021/11/23 09:26:37;;;;;;;25.55;17.80;;;6.40;99.90;;;;;;5036132;28;20733;-62
2021/11/23 09:29:05;;;;;;;30.60;19.85;;;6.50;99.90;;;;;;5035983;28;20265;-61
2021/11/23 09:31:32;;;;;;;23.17;17.75;;;6.50;99.90;;;;;;5036492;28;20302;-61
2021/11/23 09:33:59;;;;;;;27.30;18.40;;;6.50;99.90;;;;;;5036339;28;20265;-61
2021/11/23 09:36:28;;;;;;;23.80;17.90;;;6.50;99.90;;;;;;5036996;28;20207;-61
2021/11/23 09:38:55;;;;;;;29.27;17.27;;;6.50;99.90;;;;;;5036481;28;20198;-60
2021/11/23 09:41:22;;;;;;;28.42;17.73;;;6.50;99.90;;;;;;5036619;28;20234;-61
2021/11/23 09:43:50;;;;;;;26.73;18.00;;;6.60;99.90;;;;;;5037283;28;20305;-61
2021/11/23 09:46:17;;;;;;;27.48;17.75;;;6.70;99.90;;;;;;5036590;28;20293;-61
2021/11/23 09:48:46;;;;;;;26.67;17.90;;;6.70;99.90;;;;;;5036763;28;20636;-61
2021/11/23 09:51:15;;;;;;;19.17;15.50;;;6.80;99.90;;;;;;5036357;28;20290;-62
2021/11/23 09:53:44;;;;;;;22.40;16.33;;;6.80;99.90;;;;;;5035848;28;20330;-61
2021/11/23 09:56:12;;;;;;;23.85;16.85;;;6.80;99.90;;;;;;5036289;28;20596;-61
2021/11/23 09:58:39;;;;;;;26.00;17.35;;;6.80;99.90;;;;;;5035994;28;20249;-60
2021/11/23 10:01:09;;;;;;;24.67;16.52;;;6.90;99.90;;;;;;5035565;28;20238;-60
2021/11/23 10:03:37;;;;;;;23.83;15.80;;;7.00;99.90;;;;;;5035568;28;20267;-60
2021/11/23 10:06:09;;;;;;;22.92;15.98;;;7.00;99.90;;;;;;5039942;28;20639;-61
2021/11/23 10:08:37;;;;;;;26.27;16.65;;;7.10;99.90;;;;;;5043630;28;20261;-61
2021/11/23 10:11:06;;;;;;;23.50;16.35;;;7.10;99.90;;;;;;5037225;28;20204;-61
2021/11/23 10:13:43;;;;;;;22.70;16.35;;;7.10;99.90;;;;;;5037284;28;20261;-60
2021/11/23 10:16:11;;;;;;;21.10;15.50;;;7.00;99.90;;;;;;5037357;28;20187;-62
2021/11/23 10:18:38;;;;;;;18.83;15.18;;;7.10;99.90;;;;;;5035504;28;20302;-61
2021/11/23 10:21:07;;;;;;;20.80;14.00;;;7.20;99.90;;;;;;5035399;28;20265;-61
2021/11/23 10:23:36;;;;;;;21.33;13.98;;;7.20;99.90;;;;;;5058803;22;20254;-57
2021/11/23 10:26:11;;;;;;;16.35;12.00;;;7.30;99.90;;;;;;5034549;28;20214;-57
2021/11/23 10:28:40;;;;;;;13.88;12.38;;;7.30;99.90;;;;;;5034683;28;20267;-57
2021/11/23 10:31:07;;;;;;;15.52;11.85;;;7.30;99.90;;;;;;5034274;28;20249;-56
2021/11/23 10:33:37;;;;;;;16.75;13.63;;;7.40;99.90;;;;;;5034246;28;20254;-56
2021/11/23 10:36:10;;;;;;;16.58;11.98;;;7.40;99.90;;;;;;5034437;28;20191;-57
2021/11/23 10:38:39;;;;;;;19.45;13.30;;;7.40;99.90;;;;;;5035084;28;20191;-57
2021/11/23 10:41:09;;;;;;;18.20;12.93;;;7.30;99.90;;;;;;5034074;28;20294;-57
2021/11/23 10:43:39;;;;;;;19.00;12.88;;;7.30;99.90;;;;;;5034511;28;20633;-56
2021/11/23 10:46:14;;;;;;;16.25;12.63;;;7.30;99.90;;;;;;5034162;28;20229;-57
2021/11/23 10:48:41;;;;;;;16.88;12.93;;;7.30;99.90;;;;;;5033734;28;20187;-57
2021/11/23 10:51:11;;;;;;;17.30;12.00;;;7.30;99.90;;;;;;5033541;28;20235;-57
2021/11/23 10:53:42;;;;;;;21.65;12.77;;;7.30;99.90;;;;;;5034138;28;20309;-57
2021/11/23 10:56:12;;;;;;;18.33;13.70;;;7.20;99.90;;;;;;5034204;28;20189;-57
2021/11/23 10:58:41;;;;;;;15.60;12.65;;;7.20;99.90;;;;;;5033752;28;20604;-57
2021/11/23 11:01:11;;;;;;;17.40;12.95;;;7.20;99.90;;;;;;5033877;28;20264;-56
2021/11/23 11:03:39;;;;;;;20.50;12.50;;;7.20;99.90;;;;;;5033892;28;20219;-56
2021/11/23 11:06:08;;;;;;;15.60;12.20;;;7.20;99.90;;;;;;5033755;28;20297;-57
2021/11/23 11:08:37;;;;;;;14.68;11.48;;;7.20;99.90;;;;;;5033812;28;20234;-56
2021/11/23 11:11:06;;;;;;;13.77;12.00;;;7.30;99.90;;;;;;5033616;28;20245;-56
2021/11/23 11:13:36;;;;;;;16.08;12.18;;;7.40;99.90;;;;;;5033853;28;20286;-57
2021/11/23 11:16:05;;;;;;;13.70;11.63;;;7.40;99.90;;;;;;5033282;28;20206;-57
2021/11/23 11:18:32;;;;;;;15.40;11.45;;;7.50;99.90;;;;;;5033207;28;20251;-57
2021/11/23 11:21:02;;;;;;;15.00;11.60;;;7.50;99.90;;;;;;5033395;28;20231;-57
2021/11/23 11:23:31;;;;;;;13.55;9.80;;;7.50;99.90;;;;;;5033377;28;20579;-56
2021/11/23 11:26:15;;;;;;;14.73;10.27;;;7.50;99.90;;;;;;5033533;28;20206;-56
2021/11/23 11:28:53;;;;;;;10.75;9.60;;;7.50;99.90;;;;;;5033063;28;20591;-57
2021/11/23 11:31:37;;;;;;;12.40;9.38;;;7.50;99.90;;;;;;5033573;28;20232;-56
2021/11/23 11:34:23;;;;;;;11.27;9.90;;;7.50;99.90;;;;;;5033147;28;20252;-57
2021/11/23 11:36:59;;;;;;;13.65;10.73;;;7.50;99.90;;;;;;5033194;28;20182;-57
2021/11/23 11:39:55;;;;;;;13.00;10.82;;;7.60;99.90;;;;;;5033552;28;20241;-57
2021/11/23 11:43:05;;;;;;;16.83;10.27;;;7.60;99.90;;;;;;5033224;28;20585;-57
2021/11/23 11:45:52;;;;;;;18.23;9.82;;;7.60;99.90;;;;;;5018880;28;20293;-56
2021/11/23 11:48:41;;;;;;;11.80;9.65;;;7.50;99.90;;;;;;5033405;28;20573;-57
2021/11/23 11:51:11;;;;;;;13.48;9.60;;;7.40;99.90;;;;;;5030564;28;20286;-56
2021/11/23 11:53:42;;;;;;;11.05;8.57;;;7.50;99.90;;;;;;5033373;28;20258;-58
2021/11/23 11:56:10;;;;;;;12.13;9.98;;;7.50;99.90;;;;;;5033349;28;20244;-58
2021/11/23 11:58:51;;;;;;;14.43;9.40;;;7.50;99.90;;;;;;5032982;28;20226;-55
2021/11/23 12:01:28;;;;;;;15.32;10.38;;;7.50;99.90;;;;;;5033270;28;20186;-56
2021/11/23 12:04:09;;;;;;;13.20;10.48;;;7.50;99.90;;;;;;5032746;28;20228;-57
2021/11/23 12:07:16;;;;;;;12.60;9.00;;;7.60;99.90;;;;;;5032890;28;20183;-58
2021/11/23 12:09:47;;;;;;;14.95;8.77;;;7.70;99.90;;;;;;5030922;28;20602;-56
2021/11/23 12:12:41;;;;;;;13.27;8.57;;;7.70;99.90;;;;;;5032636;28;20198;-56
2021/11/23 12:15:22;;;;;;;12.48;8.90;;;7.80;99.90;;;;;;5032447;28;20197;-57
2021/11/23 12:18:07;;;;;;;13.57;9.00;;;7.90;99.90;;;;;;5032635;28;20661;-57
2021/11/23 12:20:49;;;;;;;12.55;8.95;;;7.90;99.90;;;;;;5032714;28;20594;-57
2021/11/23 12:23:19;;;;;;;16.05;10.23;;;7.90;99.90;;;;;;5032639;28;20236;-57
2021/11/23 12:25:57;;;;;;;13.77;9.75;;;8.00;99.90;;;;;;5033001;28;20269;-56
2021/11/23 12:28:28;;;;;;;12.18;9.73;;;8.00;99.90;;;;;;5032573;28;20237;-57
2021/11/23 12:30:56;;;;;;;12.68;9.85;;;8.10;99.90;;;;;;5036581;28;20301;-56
2021/11/23 12:33:26;;;;;;;15.18;10.05;;;8.20;99.90;;;;;;5036301;28;20267;-56
2021/11/23 12:35:55;;;;;;;19.83;9.80;;;8.20;99.90;;;;;;5036132;28;20206;-57
2021/11/23 12:38:24;;;;;;;14.68;10.38;;;8.30;99.90;;;;;;5036072;28;20228;-56
2021/11/23 12:40:51;;;;;;;11.70;9.52;;;8.20;99.90;;;;;;5037037;28;20567;-56
2021/11/23 12:43:19;;;;;;;11.25;8.70;;;8.20;99.90;;;;;;5036044;28;20233;-56
2021/11/23 12:45:47;;;;;;;13.88;10.25;;;8.10;99.90;;;;;;5036339;28;20242;-57
2021/11/23 12:48:17;;;;;;;16.35;11.02;;;8.10;99.90;;;;;;5036314;28;20206;-57
2021/11/23 12:50:46;;;;;;;13.02;9.77;;;8.00;99.90;;;;;;5036511;28;20713;-57
2021/11/23 12:53:15;;;;;;;16.35;9.50;;;8.10;99.90;;;;;;5036387;28;20226;-56
2021/11/23 12:55:42;;;;;;;15.18;9.15;;;8.20;99.90;;;;;;5036088;28;20587;-56
2021/11/23 12:58:10;;;;;;;13.10;9.15;;;8.20;99.90;;;;;;5036259;28;20253;-56